sensor_id;sensor_type;location;lat;lon;timestamp;temperature;humidity
75262;DHT22;63859;51.064;4.580;2024-01-15T00:01:16;2.10;99.90
75262;DHT22;63859;51.064;4.580;2024-01-15T00:03:42;2.00;99.90
75262;DHT22;63859;51.064;4.580;2024-01-15T00:06:08;2.10;99.90
75262;DHT22;63859;51.064;4.580;2024-01-15T00:08:34;2.00;99.90
75262;DHT22;63859;51.064;4.580;2024-01-15T00:10:59;2.10;99.90
75262;DHT22;63859;51.064;4.580;2024-01-15T00:13:25;2.20;99.90
75262;DHT22;63859;51.064;4.580;2024-01-15T00:15:51;2.10;99.90
75262;DHT22;63859;51.064;4.580;2024-01-15T00:18:16;2.10;99.90
75262;DHT22;63859;51.064;4.580;2024-01-15T00:20:42;2.10;99.90
75262;DHT22;63859;51.064;4.580;2024-01-15T00:23:07;2.10;99.90
75262;DHT22;63859;51.064;4.580;2024-01-15T00:25:33;2.10;99.90
75262;DHT22;63859;51.064;4.580;2024-01-15T00:27:59;2.00;99.90
75262;DHT22;63859;51.064;4.580;2024-01-15T00:30:24;1.90;99.90
75262;DHT22;63859;51.064;4.580;2024-01-15T00:32:50;1.90;99.90
75262;DHT22;63859;51.064;4.580;2024-01-15T00:35:16;1.80;99.90
75262;DHT22;63859;51.064;4.580;2024-01-15T00:37:41;1.80;99.90
75262;DHT22;63859;51.064;4.580;2024-01-15T00:40:07;1.70;99.90
75262;DHT22;63859;51.064;4.580;2024-01-15T00:42:34;1.70;99.90
75262;DHT22;63859;51.064;4.580;2024-01-15T00:44:59;1.70;99.90
75262;DHT22;63859;51.064;4.580;2024-01-15T00:47:25;1.60;99.90
75262;DHT22;63859;51.064;4.580;2024-01-15T00:49:51;1.70;99.90
75262;DHT22;63859;51.064;4.580;2024-01-15T00:52:16;1.60;99.90
75262;DHT22;63859;51.064;4.580;2024-01-15T00:54:42;1.60;99.90
75262;DHT22;63859;51.064;4.580;2024-01-15T00:57:08;1.60;99.90
75262;DHT22;63859;51.064;4.580;2024-01-15T00:59:33;1.70;99.90
75262;DHT22;63859;51.064;4.580;2024-01-15T01:01:59;1.50;99.90
75262;DHT22;63859;51.064;4.580;2024-01-15T01:04:25;1.50;99.90
75262;DHT22;63859;51.064;4.580;2024-01-15T01:06:50;1.40;99.90
75262;DHT22;63859;51.064;4.580;2024-01-15T01:09:16;1.40;99.90
75262;DHT22;63859;51.064;4.580;2024-01-15T01:11:42;1.40;99.90
75262;DHT22;63859;51.064;4.580;2024-01-15T01:14:07;1.40;99.90
75262;DHT22;63859;51.064;4.580;2024-01-15T01:16:33;1.40;99.90
75262;DHT22;63859;51.064;4.580;2024-01-15T01:19:05;1.40;99.90
75262;DHT22;63859;51.064;4.580;2024-01-15T01:21:31;1.40;99.90
75262;DHT22;63859;51.064;4.580;2024-01-15T01:23:57;1.40;99.90
75262;DHT22;63859;51.064;4.580;2024-01-15T01:26:22;1.40;99.90
75262;DHT22;63859;51.064;4.580;2024-01-15T01:28:48;1.30;99.90
75262;DHT22;63859;51.064;4.580;2024-01-15T01:31:14;1.30;99.90
75262;DHT22;63859;51.064;4.580;2024-01-15T01:33:39;1.20;99.90
75262;DHT22;63859;51.064;4.580;2024-01-15T01:36:09;1.30;99.90
75262;DHT22;63859;51.064;4.580;2024-01-15T01:38:36;1.30;99.90
75262;DHT22;63859;51.064;4.580;2024-01-15T01:41:02;1.30;99.90
75262;DHT22;63859;51.064;4.580;2024-01-15T01:43:27;1.20;99.90
75262;DHT22;63859;51.064;4.580;2024-01-15T01:45:56;1.20;99.90
75262;DHT22;63859;51.064;4.580;2024-01-15T01:48:24;1.30;99.90
75262;DHT22;63859;51.064;4.580;2024-01-15T01:50:52;1.20;99.90
75262;DHT22;63859;51.064;4.580;2024-01-15T01:53:19;1.20;99.90
75262;DHT22;63859;51.064;4.580;2024-01-15T01:55:45;1.20;99.90
75262;DHT22;63859;51.064;4.580;2024-01-15T01:58:11;1.20;99.90
75262;DHT22;63859;51.064;4.580;2024-01-15T02:00:37;1.30;99.90
75262;DHT22;63859;51.064;4.580;2024-01-15T02:03:04;1.30;99.90
75262;DHT22;63859;51.064;4.580;2024-01-15T02:05:31;1.30;99.90
75262;DHT22;63859;51.064;4.580;2024-01-15T02:07:57;1.30;99.90
75262;DHT22;63859;51.064;4.580;2024-01-15T02:10:22;1.50;99.90
75262;DHT22;63859;51.064;4.580;2024-01-15T02:12:48;1.30;99.90
75262;DHT22;63859;51.064;4.580;2024-01-15T02:15:14;1.40;99.90
75262;DHT22;63859;51.064;4.580;2024-01-15T02:20:25;1.40;99.90
75262;DHT22;63859;51.064;4.580;2024-01-15T02:22:51;1.40;99.90
75262;DHT22;63859;51.064;4.580;2024-01-15T02:25:17;1.50;99.90
75262;DHT22;63859;51.064;4.580;2024-01-15T02:27:44;1.50;99.90
75262;DHT22;63859;51.064;4.580;2024-01-15T02:30:11;1.60;99.90
75262;DHT22;63859;51.064;4.580;2024-01-15T02:32:37;1.50;99.90
75262;DHT22;63859;51.064;4.580;2024-01-15T02:35:03;1.50;99.90
75262;DHT22;63859;51.064;4.580;2024-01-15T02:37:29;1.50;99.90
75262;DHT22;63859;51.064;4.580;2024-01-15T02:39:55;1.60;99.90
75262;DHT22;63859;51.064;4.580;2024-01-15T02:42:20;1.60;99.90
75262;DHT22;63859;51.064;4.580;2024-01-15T02:44:46;1.60;99.90
75262;DHT22;63859;51.064;4.580;2024-01-15T02:47:14;1.60;99.90
75262;DHT22;63859;51.064;4.580;2024-01-15T02:49:40;1.60;99.90
75262;DHT22;63859;51.064;4.580;2024-01-15T02:52:06;1.60;99.90
75262;DHT22;63859;51.064;4.580;2024-01-15T02:54:31;1.60;99.90
75262;DHT22;63859;51.064;4.580;2024-01-15T02:56:57;1.60;99.90
75262;DHT22;63859;51.064;4.580;2024-01-15T02:59:22;1.60;99.90
75262;DHT22;63859;51.064;4.580;2024-01-15T03:01:48;1.60;99.90
75262;DHT22;63859;51.064;4.580;2024-01-15T03:04:14;1.60;99.90
75262;DHT22;63859;51.064;4.580;2024-01-15T03:06:39;1.60;99.90
75262;DHT22;63859;51.064;4.580;2024-01-15T03:09:05;1.60;99.90
75262;DHT22;63859;51.064;4.580;2024-01-15T03:14:03;1.60;99.90
75262;DHT22;63859;51.064;4.580;2024-01-15T03:16:29;1.70;99.90
75262;DHT22;63859;51.064;4.580;2024-01-15T03:18:54;1.60;99.90
75262;DHT22;63859;51.064;4.580;2024-01-15T03:21:20;1.70;99.90
75262;DHT22;63859;51.064;4.580;2024-01-15T03:23:46;1.70;99.90
75262;DHT22;63859;51.064;4.580;2024-01-15T03:26:11;1.70;99.90
75262;DHT22;63859;51.064;4.580;2024-01-15T03:28:37;1.80;99.90
75262;DHT22;63859;51.064;4.580;2024-01-15T03:31:02;1.70;99.90
75262;DHT22;63859;51.064;4.580;2024-01-15T03:33:28;1.60;99.90
75262;DHT22;63859;51.064;4.580;2024-01-15T03:35:54;1.70;99.90
75262;DHT22;63859;51.064;4.580;2024-01-15T03:38:19;1.70;99.90
75262;DHT22;63859;51.064;4.580;2024-01-15T03:40:45;1.70;99.90
75262;DHT22;63859;51.064;4.580;2024-01-15T03:43:12;1.70;99.90
75262;DHT22;63859;51.064;4.580;2024-01-15T03:45:37;1.70;99.90
75262;DHT22;63859;51.064;4.580;2024-01-15T03:48:03;1.70;99.90
75262;DHT22;63859;51.064;4.580;2024-01-15T03:50:29;1.70;99.90
75262;DHT22;63859;51.064;4.580;2024-01-15T03:52:55;1.70;99.90
75262;DHT22;63859;51.064;4.580;2024-01-15T03:55:20;1.70;99.90
75262;DHT22;63859;51.064;4.580;2024-01-15T03:57:46;1.70;99.90
75262;DHT22;63859;51.064;4.580;2024-01-15T04:00:12;1.70;99.90
75262;DHT22;63859;51.064;4.580;2024-01-15T04:02:38;1.70;99.90
75262;DHT22;63859;51.064;4.580;2024-01-15T04:05:03;1.70;99.90
75262;DHT22;63859;51.064;4.580;2024-01-15T04:07:29;1.70;99.90
75262;DHT22;63859;51.064;4.580;2024-01-15T04:09:55;1.70;99.90
75262;DHT22;63859;51.064;4.580;2024-01-15T04:12:20;1.70;99.90
75262;DHT22;63859;51.064;4.580;2024-01-15T04:14:46;1.70;99.90
75262;DHT22;63859;51.064;4.580;2024-01-15T04:17:12;1.60;99.90
75262;DHT22;63859;51.064;4.580;2024-01-15T04:19:37;1.70;99.90
75262;DHT22;63859;51.064;4.580;2024-01-15T04:22:03;1.60;99.90
75262;DHT22;63859;51.064;4.580;2024-01-15T04:24:31;1.60;99.90
75262;DHT22;63859;51.064;4.580;2024-01-15T04:26:57;1.60;99.90
75262;DHT22;63859;51.064;4.580;2024-01-15T04:29:22;1.60;99.90
75262;DHT22;63859;51.064;4.580;2024-01-15T04:34:14;1.50;99.90
75262;DHT22;63859;51.064;4.580;2024-01-15T04:36:40;1.50;99.90
75262;DHT22;63859;51.064;4.580;2024-01-15T04:41:37;1.50;99.90
75262;DHT22;63859;51.064;4.580;2024-01-15T04:44:02;1.40;99.90
75262;DHT22;63859;51.064;4.580;2024-01-15T04:46:28;1.40;99.90
75262;DHT22;63859;51.064;4.580;2024-01-15T04:48:54;1.40;99.90
75262;DHT22;63859;51.064;4.580;2024-01-15T04:51:19;1.40;99.90
75262;DHT22;63859;51.064;4.580;2024-01-15T04:53:45;1.40;99.90
75262;DHT22;63859;51.064;4.580;2024-01-15T04:56:10;1.30;99.90
75262;DHT22;63859;51.064;4.580;2024-01-15T04:58:36;1.30;99.90
75262;DHT22;63859;51.064;4.580;2024-01-15T05:01:02;1.30;99.90
75262;DHT22;63859;51.064;4.580;2024-01-15T05:03:28;1.30;99.90
75262;DHT22;63859;51.064;4.580;2024-01-15T05:05:53;1.30;99.90
75262;DHT22;63859;51.064;4.580;2024-01-15T05:08:19;1.20;99.90
75262;DHT22;63859;51.064;4.580;2024-01-15T05:10:45;1.20;99.90
75262;DHT22;63859;51.064;4.580;2024-01-15T05:13:11;1.30;99.90
75262;DHT22;63859;51.064;4.580;2024-01-15T05:15:36;1.30;99.90
75262;DHT22;63859;51.064;4.580;2024-01-15T05:18:02;1.30;99.90
75262;DHT22;63859;51.064;4.580;2024-01-15T05:20:28;1.30;99.90
75262;DHT22;63859;51.064;4.580;2024-01-15T05:22:53;1.40;99.90
75262;DHT22;63859;51.064;4.580;2024-01-15T05:25:19;1.40;99.90
75262;DHT22;63859;51.064;4.580;2024-01-15T05:27:45;1.40;99.90
75262;DHT22;63859;51.064;4.580;2024-01-15T05:30:11;1.40;99.90
75262;DHT22;63859;51.064;4.580;2024-01-15T05:32:36;1.40;99.90
75262;DHT22;63859;51.064;4.580;2024-01-15T05:35:02;1.40;99.90
75262;DHT22;63859;51.064;4.580;2024-01-15T05:37:28;1.40;99.90
75262;DHT22;63859;51.064;4.580;2024-01-15T05:39:53;1.50;99.90
75262;DHT22;63859;51.064;4.580;2024-01-15T05:44:45;1.40;99.90
75262;DHT22;63859;51.064;4.580;2024-01-15T05:47:11;1.40;99.90
75262;DHT22;63859;51.064;4.580;2024-01-15T05:49:36;1.40;99.90
75262;DHT22;63859;51.064;4.580;2024-01-15T05:52:02;1.40;99.90
75262;DHT22;63859;51.064;4.580;2024-01-15T05:54:28;1.40;99.90
75262;DHT22;63859;51.064;4.580;2024-01-15T05:56:53;1.40;99.90
75262;DHT22;63859;51.064;4.580;2024-01-15T05:59:19;1.40;99.90
75262;DHT22;63859;51.064;4.580;2024-01-15T06:01:45;1.40;99.90
75262;DHT22;63859;51.064;4.580;2024-01-15T06:04:10;1.40;99.90
75262;DHT22;63859;51.064;4.580;2024-01-15T06:06:36;1.40;99.90
75262;DHT22;63859;51.064;4.580;2024-01-15T06:09:02;1.30;99.90
75262;DHT22;63859;51.064;4.580;2024-01-15T06:11:33;1.30;99.90
75262;DHT22;63859;51.064;4.580;2024-01-15T06:13:59;1.40;99.90
75262;DHT22;63859;51.064;4.580;2024-01-15T06:16:28;1.40;99.90
75262;DHT22;63859;51.064;4.580;2024-01-15T06:18:54;1.40;99.90
75262;DHT22;63859;51.064;4.580;2024-01-15T06:21:20;1.30;99.90
75262;DHT22;63859;51.064;4.580;2024-01-15T06:23:45;1.30;99.90
75262;DHT22;63859;51.064;4.580;2024-01-15T06:26:12;1.40;99.90
75262;DHT22;63859;51.064;4.580;2024-01-15T06:28:37;1.30;99.90
75262;DHT22;63859;51.064;4.580;2024-01-15T06:31:03;1.30;99.90
75262;DHT22;63859;51.064;4.580;2024-01-15T06:33:29;1.30;99.90
75262;DHT22;63859;51.064;4.580;2024-01-15T06:35:55;1.30;99.90
75262;DHT22;63859;51.064;4.580;2024-01-15T06:38:21;1.30;99.90
75262;DHT22;63859;51.064;4.580;2024-01-15T06:40:47;1.30;99.90
75262;DHT22;63859;51.064;4.580;2024-01-15T06:43:14;1.30;99.90
75262;DHT22;63859;51.064;4.580;2024-01-15T06:45:40;1.30;99.90
75262;DHT22;63859;51.064;4.580;2024-01-15T06:48:06;1.30;99.90
75262;DHT22;63859;51.064;4.580;2024-01-15T06:50:32;1.30;99.90
75262;DHT22;63859;51.064;4.580;2024-01-15T06:52:58;1.30;99.90
75262;DHT22;63859;51.064;4.580;2024-01-15T06:55:24;1.30;99.90
75262;DHT22;63859;51.064;4.580;2024-01-15T06:57:51;1.40;99.90
75262;DHT22;63859;51.064;4.580;2024-01-15T07:00:17;1.40;99.90
75262;DHT22;63859;51.064;4.580;2024-01-15T07:02:45;1.30;99.90
75262;DHT22;63859;51.064;4.580;2024-01-15T07:05:11;1.30;99.90
75262;DHT22;63859;51.064;4.580;2024-01-15T07:07:36;1.20;99.90
75262;DHT22;63859;51.064;4.580;2024-01-15T07:10:03;1.30;99.90
75262;DHT22;63859;51.064;4.580;2024-01-15T07:12:29;1.30;99.90
75262;DHT22;63859;51.064;4.580;2024-01-15T07:14:56;1.30;99.90
75262;DHT22;63859;51.064;4.580;2024-01-15T07:17:22;1.20;99.90
75262;DHT22;63859;51.064;4.580;2024-01-15T07:19:47;1.30;99.90
75262;DHT22;63859;51.064;4.580;2024-01-15T07:22:13;1.30;99.90
75262;DHT22;63859;51.064;4.580;2024-01-15T07:24:40;1.30;99.90
75262;DHT22;63859;51.064;4.580;2024-01-15T07:27:06;1.30;99.90
75262;DHT22;63859;51.064;4.580;2024-01-15T07:29:31;1.20;99.90
75262;DHT22;63859;51.064;4.580;2024-01-15T07:31:58;1.20;99.90
75262;DHT22;63859;51.064;4.580;2024-01-15T07:34:24;1.30;99.90
75262;DHT22;63859;51.064;4.580;2024-01-15T07:36:50;1.30;99.90
75262;DHT22;63859;51.064;4.580;2024-01-15T07:39:16;1.30;99.90
75262;DHT22;63859;51.064;4.580;2024-01-15T07:41:42;1.20;99.90
75262;DHT22;63859;51.064;4.580;2024-01-15T07:44:07;1.20;99.90
75262;DHT22;63859;51.064;4.580;2024-01-15T07:46:33;1.30;99.90
75262;DHT22;63859;51.064;4.580;2024-01-15T07:48:59;1.30;99.90
75262;DHT22;63859;51.064;4.580;2024-01-15T07:51:25;1.30;99.90
75262;DHT22;63859;51.064;4.580;2024-01-15T07:53:53;1.20;99.90
75262;DHT22;63859;51.064;4.580;2024-01-15T07:56:18;1.30;99.90
75262;DHT22;63859;51.064;4.580;2024-01-15T07:58:44;1.30;99.90
75262;DHT22;63859;51.064;4.580;2024-01-15T08:01:10;1.30;99.90
75262;DHT22;63859;51.064;4.580;2024-01-15T08:03:36;1.20;99.90
75262;DHT22;63859;51.064;4.580;2024-01-15T08:06:02;1.20;99.90
75262;DHT22;63859;51.064;4.580;2024-01-15T08:08:27;1.30;99.90
75262;DHT22;63859;51.064;4.580;2024-01-15T08:10:53;1.30;99.90
75262;DHT22;63859;51.064;4.580;2024-01-15T08:13:19;1.30;99.90
75262;DHT22;63859;51.064;4.580;2024-01-15T08:15:46;1.30;99.90
75262;DHT22;63859;51.064;4.580;2024-01-15T08:18:11;1.30;99.90
75262;DHT22;63859;51.064;4.580;2024-01-15T08:20:37;1.30;99.90
75262;DHT22;63859;51.064;4.580;2024-01-15T08:23:04;1.30;99.90
75262;DHT22;63859;51.064;4.580;2024-01-15T08:25:29;1.30;99.90
75262;DHT22;63859;51.064;4.580;2024-01-15T08:27:56;1.30;99.90
75262;DHT22;63859;51.064;4.580;2024-01-15T08:30:23;1.40;99.90
75262;DHT22;63859;51.064;4.580;2024-01-15T08:32:55;1.40;99.90
75262;DHT22;63859;51.064;4.580;2024-01-15T08:35:21;1.40;99.90
75262;DHT22;63859;51.064;4.580;2024-01-15T08:37:51;1.40;99.90
75262;DHT22;63859;51.064;4.580;2024-01-15T08:40:18;1.40;99.90
75262;DHT22;63859;51.064;4.580;2024-01-15T08:42:44;1.40;99.90
75262;DHT22;63859;51.064;4.580;2024-01-15T08:45:11;1.40;99.90
75262;DHT22;63859;51.064;4.580;2024-01-15T08:47:36;1.50;99.90
75262;DHT22;63859;51.064;4.580;2024-01-15T08:50:03;1.40;99.90
75262;DHT22;63859;51.064;4.580;2024-01-15T08:52:29;1.40;99.90
75262;DHT22;63859;51.064;4.580;2024-01-15T08:54:57;1.50;99.90
75262;DHT22;63859;51.064;4.580;2024-01-15T08:57:23;1.50;99.90
75262;DHT22;63859;51.064;4.580;2024-01-15T08:59:48;1.50;99.90
75262;DHT22;63859;51.064;4.580;2024-01-15T09:02:14;1.60;99.90
75262;DHT22;63859;51.064;4.580;2024-01-15T09:04:41;1.60;99.90
75262;DHT22;63859;51.064;4.580;2024-01-15T09:07:07;1.60;99.90
75262;DHT22;63859;51.064;4.580;2024-01-15T09:09:33;1.70;99.90
75262;DHT22;63859;51.064;4.580;2024-01-15T09:12:00;1.70;99.90
75262;DHT22;63859;51.064;4.580;2024-01-15T09:14:26;1.80;99.90
75262;DHT22;63859;51.064;4.580;2024-01-15T09:16:53;1.80;99.90
75262;DHT22;63859;51.064;4.580;2024-01-15T09:19:18;1.80;99.90
75262;DHT22;63859;51.064;4.580;2024-01-15T09:21:44;1.80;99.90
75262;DHT22;63859;51.064;4.580;2024-01-15T09:24:10;1.80;99.90
75262;DHT22;63859;51.064;4.580;2024-01-15T09:26:36;1.80;99.90
75262;DHT22;63859;51.064;4.580;2024-01-15T09:29:02;1.80;99.90
75262;DHT22;63859;51.064;4.580;2024-01-15T09:31:28;1.80;99.90
75262;DHT22;63859;51.064;4.580;2024-01-15T09:33:54;1.80;99.90
75262;DHT22;63859;51.064;4.580;2024-01-15T09:36:24;1.80;99.90
75262;DHT22;63859;51.064;4.580;2024-01-15T09:38:51;1.80;99.90
75262;DHT22;63859;51.064;4.580;2024-01-15T09:41:17;1.80;99.90
75262;DHT22;63859;51.064;4.580;2024-01-15T09:43:42;1.90;99.90
75262;DHT22;63859;51.064;4.580;2024-01-15T09:46:08;1.90;99.90
75262;DHT22;63859;51.064;4.580;2024-01-15T09:48:35;2.00;99.90
75262;DHT22;63859;51.064;4.580;2024-01-15T09:51:01;2.00;99.90
75262;DHT22;63859;51.064;4.580;2024-01-15T09:53:27;2.00;99.90
75262;DHT22;63859;51.064;4.580;2024-01-15T09:55:53;2.10;99.90
75262;DHT22;63859;51.064;4.580;2024-01-15T09:58:19;2.20;99.90
75262;DHT22;63859;51.064;4.580;2024-01-15T10:00:45;2.20;99.90
75262;DHT22;63859;51.064;4.580;2024-01-15T10:03:13;2.30;99.90
75262;DHT22;63859;51.064;4.580;2024-01-15T10:05:39;2.20;99.90
75262;DHT22;63859;51.064;4.580;2024-01-15T10:08:05;2.30;99.90
75262;DHT22;63859;51.064;4.580;2024-01-15T10:10:31;2.40;99.90
75262;DHT22;63859;51.064;4.580;2024-01-15T10:12:58;2.40;99.90
75262;DHT22;63859;51.064;4.580;2024-01-15T10:15:27;2.40;99.90
75262;DHT22;63859;51.064;4.580;2024-01-15T10:17:53;2.50;99.90
75262;DHT22;63859;51.064;4.580;2024-01-15T10:20:20;2.50;99.90
75262;DHT22;63859;51.064;4.580;2024-01-15T10:22:47;2.60;99.90
75262;DHT22;63859;51.064;4.580;2024-01-15T10:25:14;2.60;99.90
75262;DHT22;63859;51.064;4.580;2024-01-15T10:27:43;2.70;99.90
75262;DHT22;63859;51.064;4.580;2024-01-15T10:30:10;2.70;99.90
75262;DHT22;63859;51.064;4.580;2024-01-15T10:32:36;2.80;99.90
75262;DHT22;63859;51.064;4.580;2024-01-15T10:35:02;2.80;99.90
75262;DHT22;63859;51.064;4.580;2024-01-15T10:37:33;2.80;99.90
75262;DHT22;63859;51.064;4.580;2024-01-15T10:40:00;2.90;99.90
75262;DHT22;63859;51.064;4.580;2024-01-15T10:42:26;2.90;99.90
75262;DHT22;63859;51.064;4.580;2024-01-15T10:44:52;3.00;99.90
75262;DHT22;63859;51.064;4.580;2024-01-15T10:47:18;3.10;99.90
75262;DHT22;63859;51.064;4.580;2024-01-15T10:49:45;3.30;99.90
75262;DHT22;63859;51.064;4.580;2024-01-15T10:52:11;3.30;99.90
75262;DHT22;63859;51.064;4.580;2024-01-15T10:54:37;3.40;99.90
75262;DHT22;63859;51.064;4.580;2024-01-15T10:57:04;3.50;99.90
75262;DHT22;63859;51.064;4.580;2024-01-15T10:59:31;3.60;99.90
75262;DHT22;63859;51.064;4.580;2024-01-15T11:01:59;3.70;99.90
75262;DHT22;63859;51.064;4.580;2024-01-15T11:04:25;3.60;99.90
75262;DHT22;63859;51.064;4.580;2024-01-15T11:06:54;3.50;99.90
75262;DHT22;63859;51.064;4.580;2024-01-15T11:09:21;3.50;99.90
75262;DHT22;63859;51.064;4.580;2024-01-15T11:11:47;3.50;99.90
75262;DHT22;63859;51.064;4.580;2024-01-15T11:14:40;3.60;99.90
75262;DHT22;63859;51.064;4.580;2024-01-15T11:17:09;3.60;99.90
75262;DHT22;63859;51.064;4.580;2024-01-15T11:19:45;3.60;99.90
75262;DHT22;63859;51.064;4.580;2024-01-15T11:24:55;3.60;99.90
75262;DHT22;63859;51.064;4.580;2024-01-15T11:27:41;3.60;99.90
75262;DHT22;63859;51.064;4.580;2024-01-15T11:30:12;3.60;99.90
75262;DHT22;63859;51.064;4.580;2024-01-15T11:32:38;3.70;99.90
75262;DHT22;63859;51.064;4.580;2024-01-15T11:35:08;3.70;99.90
75262;DHT22;63859;51.064;4.580;2024-01-15T11:42:49;3.70;99.90
75262;DHT22;63859;51.064;4.580;2024-01-15T11:45:19;4.00;99.90
75262;DHT22;63859;51.064;4.580;2024-01-15T11:48:10;4.20;99.90
75262;DHT22;63859;51.064;4.580;2024-01-15T11:50:43;4.20;99.90
75262;DHT22;63859;51.064;4.580;2024-01-15T11:55:51;4.00;99.90
75262;DHT22;63859;51.064;4.580;2024-01-15T11:58:18;3.90;99.90
75262;DHT22;63859;51.064;4.580;2024-01-15T12:00:47;3.80;99.90
75262;DHT22;63859;51.064;4.580;2024-01-15T12:03:12;3.80;99.90
75262;DHT22;63859;51.064;4.580;2024-01-15T12:05:39;3.70;99.90
75262;DHT22;63859;51.064;4.580;2024-01-15T12:08:05;3.60;99.90
75262;DHT22;63859;51.064;4.580;2024-01-15T12:10:37;3.40;99.90
75262;DHT22;63859;51.064;4.580;2024-01-15T12:13:13;3.20;99.90
75262;DHT22;63859;51.064;4.580;2024-01-15T12:15:39;3.10;99.90
75262;DHT22;63859;51.064;4.580;2024-01-15T12:18:09;3.00;99.90
75262;DHT22;63859;51.064;4.580;2024-01-15T12:20:36;3.10;99.90
75262;DHT22;63859;51.064;4.580;2024-01-15T12:23:02;3.10;99.90
75262;DHT22;63859;51.064;4.580;2024-01-15T12:25:31;3.20;99.90
75262;DHT22;63859;51.064;4.580;2024-01-15T12:27:59;3.30;99.90
75262;DHT22;63859;51.064;4.580;2024-01-15T12:30:29;3.30;99.90
75262;DHT22;63859;51.064;4.580;2024-01-15T12:32:55;3.30;99.90
75262;DHT22;63859;51.064;4.580;2024-01-15T12:35:23;3.40;99.90
75262;DHT22;63859;51.064;4.580;2024-01-15T12:37:49;3.30;99.90
75262;DHT22;63859;51.064;4.580;2024-01-15T12:40:19;3.20;99.90
75262;DHT22;63859;51.064;4.580;2024-01-15T12:42:44;2.80;99.90
75262;DHT22;63859;51.064;4.580;2024-01-15T12:45:12;2.50;99.90
75262;DHT22;63859;51.064;4.580;2024-01-15T12:47:41;2.30;99.90
75262;DHT22;63859;51.064;4.580;2024-01-15T12:50:11;2.20;99.90
75262;DHT22;63859;51.064;4.580;2024-01-15T12:52:39;2.10;99.90
75262;DHT22;63859;51.064;4.580;2024-01-15T12:55:07;2.00;99.90
75262;DHT22;63859;51.064;4.580;2024-01-15T12:57:34;2.10;99.90
75262;DHT22;63859;51.064;4.580;2024-01-15T13:00:00;2.00;99.90
75262;DHT22;63859;51.064;4.580;2024-01-15T13:02:26;2.00;99.90
75262;DHT22;63859;51.064;4.580;2024-01-15T13:04:52;2.00;99.90
75262;DHT22;63859;51.064;4.580;2024-01-15T13:07:19;2.00;99.90
75262;DHT22;63859;51.064;4.580;2024-01-15T13:09:45;2.00;99.90
75262;DHT22;63859;51.064;4.580;2024-01-15T13:14:37;1.90;99.90
75262;DHT22;63859;51.064;4.580;2024-01-15T13:17:03;1.90;99.90
75262;DHT22;63859;51.064;4.580;2024-01-15T13:19:29;1.90;99.90
75262;DHT22;63859;51.064;4.580;2024-01-15T13:21:54;1.80;99.90
75262;DHT22;63859;51.064;4.580;2024-01-15T13:24:22;1.80;99.90
75262;DHT22;63859;51.064;4.580;2024-01-15T13:26:48;1.70;99.90
75262;DHT22;63859;51.064;4.580;2024-01-15T13:29:14;1.70;99.90
75262;DHT22;63859;51.064;4.580;2024-01-15T13:31:40;1.70;99.90
75262;DHT22;63859;51.064;4.580;2024-01-15T13:34:06;1.60;99.90
75262;DHT22;63859;51.064;4.580;2024-01-15T13:36:32;1.60;99.90
75262;DHT22;63859;51.064;4.580;2024-01-15T13:38:58;1.60;99.90
75262;DHT22;63859;51.064;4.580;2024-01-15T13:41:24;1.50;99.90
75262;DHT22;63859;51.064;4.580;2024-01-15T13:43:55;1.50;99.90
75262;DHT22;63859;51.064;4.580;2024-01-15T13:46:25;1.50;99.90
75262;DHT22;63859;51.064;4.580;2024-01-15T13:48:53;1.50;99.90
75262;DHT22;63859;51.064;4.580;2024-01-15T13:51:23;1.60;99.90
75262;DHT22;63859;51.064;4.580;2024-01-15T13:53:49;1.60;99.90
75262;DHT22;63859;51.064;4.580;2024-01-15T13:56:15;1.60;99.90
75262;DHT22;63859;51.064;4.580;2024-01-15T13:58:41;1.60;99.90
75262;DHT22;63859;51.064;4.580;2024-01-15T14:01:08;1.70;99.90
75262;DHT22;63859;51.064;4.580;2024-01-15T14:03:34;1.70;99.90
75262;DHT22;63859;51.064;4.580;2024-01-15T14:06:00;1.70;99.90
75262;DHT22;63859;51.064;4.580;2024-01-15T14:08:28;1.60;99.90
75262;DHT22;63859;51.064;4.580;2024-01-15T14:10:54;1.60;99.90
75262;DHT22;63859;51.064;4.580;2024-01-15T14:13:21;1.60;99.90
75262;DHT22;63859;51.064;4.580;2024-01-15T14:15:47;1.50;99.90
75262;DHT22;63859;51.064;4.580;2024-01-15T14:18:16;1.50;99.90
75262;DHT22;63859;51.064;4.580;2024-01-15T14:20:41;1.50;99.90
75262;DHT22;63859;51.064;4.580;2024-01-15T14:23:08;1.50;99.90
75262;DHT22;63859;51.064;4.580;2024-01-15T14:25:33;1.60;99.90
75262;DHT22;63859;51.064;4.580;2024-01-15T14:27:59;1.60;99.90
75262;DHT22;63859;51.064;4.580;2024-01-15T14:30:25;1.70;99.90
75262;DHT22;63859;51.064;4.580;2024-01-15T14:32:51;1.70;99.90
75262;DHT22;63859;51.064;4.580;2024-01-15T14:35:16;1.90;99.90
75262;DHT22;63859;51.064;4.580;2024-01-15T14:37:42;1.80;99.90
75262;DHT22;63859;51.064;4.580;2024-01-15T14:40:08;1.80;99.90
75262;DHT22;63859;51.064;4.580;2024-01-15T14:42:36;1.80;99.90
75262;DHT22;63859;51.064;4.580;2024-01-15T14:45:02;1.80;99.90
75262;DHT22;63859;51.064;4.580;2024-01-15T14:47:28;1.80;99.90
75262;DHT22;63859;51.064;4.580;2024-01-15T14:49:54;1.80;99.90
75262;DHT22;63859;51.064;4.580;2024-01-15T14:52:22;1.90;99.90
75262;DHT22;63859;51.064;4.580;2024-01-15T14:54:49;2.00;99.90
75262;DHT22;63859;51.064;4.580;2024-01-15T14:57:15;2.00;99.90
75262;DHT22;63859;51.064;4.580;2024-01-15T14:59:40;2.10;99.90
75262;DHT22;63859;51.064;4.580;2024-01-15T15:02:06;2.00;99.90
75262;DHT22;63859;51.064;4.580;2024-01-15T15:04:32;2.10;99.90
75262;DHT22;63859;51.064;4.580;2024-01-15T15:06:58;2.00;99.90
75262;DHT22;63859;51.064;4.580;2024-01-15T15:09:23;2.00;99.90
75262;DHT22;63859;51.064;4.580;2024-01-15T15:11:49;2.00;99.90
75262;DHT22;63859;51.064;4.580;2024-01-15T15:14:16;1.90;99.90
75262;DHT22;63859;51.064;4.580;2024-01-15T15:16:42;1.90;99.90
75262;DHT22;63859;51.064;4.580;2024-01-15T15:19:08;1.90;99.90
75262;DHT22;63859;51.064;4.580;2024-01-15T15:21:33;1.90;99.90
75262;DHT22;63859;51.064;4.580;2024-01-15T15:23:59;1.80;99.90
75262;DHT22;63859;51.064;4.580;2024-01-15T15:26:25;1.90;99.90
75262;DHT22;63859;51.064;4.580;2024-01-15T15:28:51;1.90;99.90
75262;DHT22;63859;51.064;4.580;2024-01-15T15:31:17;2.00;99.90
75262;DHT22;63859;51.064;4.580;2024-01-15T15:33:43;1.90;99.90
75262;DHT22;63859;51.064;4.580;2024-01-15T15:36:10;1.90;99.90
75262;DHT22;63859;51.064;4.580;2024-01-15T15:38:35;1.80;99.90
75262;DHT22;63859;51.064;4.580;2024-01-15T15:41:01;1.80;99.90
75262;DHT22;63859;51.064;4.580;2024-01-15T15:43:27;1.70;99.90
75262;DHT22;63859;51.064;4.580;2024-01-15T15:45:53;1.70;99.90
75262;DHT22;63859;51.064;4.580;2024-01-15T15:48:19;1.60;99.90
75262;DHT22;63859;51.064;4.580;2024-01-15T15:50:44;1.60;99.90
75262;DHT22;63859;51.064;4.580;2024-01-15T15:53:11;1.60;99.90
75262;DHT22;63859;51.064;4.580;2024-01-15T15:55:37;1.60;99.90
75262;DHT22;63859;51.064;4.580;2024-01-15T15:58:04;1.60;99.90
75262;DHT22;63859;51.064;4.580;2024-01-15T16:00:30;1.60;99.90
75262;DHT22;63859;51.064;4.580;2024-01-15T16:02:56;1.60;99.90
75262;DHT22;63859;51.064;4.580;2024-01-15T16:05:22;1.60;99.90